Alconbury RAF, United Kingdom

4:04 AM GMT on January 30, 2015 (GMT +0000)
Cambridgeshire | Change Station
CLOSE
Current Station
Personal Weather Station
Location: St Ives, CAMBRIDGESHIRE
Elevation: 95 ft
Nearby Weather Stations

Elev 95 ft 52.34 °N, 0.09 °W | Updated 26 minutes ago

Light Snow
Light Snow
34.9 °F
Feels Like 35 °F
N
0.0
Wind Variable Wind from SSW
Gusts 0.0 mph

Today
High -- | Low -- °F
--% Chance of Precip.
Yesterday
High -- | Low -- °F
Precip. -- in
7:45 AM 4:43 PM
Waxing Gibbous, 79% visible
Pressure 28.77 in
Visibility 6.2 miles
Clouds Mostly Cloudy 600 ft
Scattered Clouds 1400 ft
Windchill 35 °F
Dew Point 32 °F
Humidity 89%
Rainfall 0.00 in
Snow Depth Not available.
UV 0 out of 12
Pollen Not available.
Air Quality Not available.
Flu Activity Not available.
METAR EGXT 300250Z AUTO 25003KT 9999 -SN BKN006/// SCT014/// 01/00 Q0974

More Conditions Fewer Conditions

Pressure 28.77 in
Visibility 6.2 miles
Clouds Mostly Cloudy 600 ft
Scattered Clouds 1400 ft
Windchill 35 °F
Dew Point 32 °F
Humidity 89%
Rainfall 0.00 in
Snow Depth Not available.
UV 0 out of 12
Pollen Not available.
Air Quality Not available.
Flu Activity Not available.
METAR EGXT 300250Z AUTO 25003KT 9999 -SN BKN006/// SCT014/// 01/00 Q0974

More Conditions Fewer Conditions

10-Day Weather Forecast

Almanac

Astronomy

Jan. 30, 2015 Rise Set
Actual Time
Civil Twilight
Nautical Twilight
Astronomical Twilight
Moon
Length of Visible Light
Length of Day
Tomorrow will be .
, % of the Moon is Illuminated

Today's Extremes

Country Highs Country Lows

Community

WunderPhotos

Upload Photos

1,791,699 photos uploaded!

WunderBlogs® & News

Nearby

Air Quality

  Air Quality AQ Index Pollutant
Not available.

Snow Depth

Station Depth Elevation

Earthquake Activity

City Distance Mag. Time & Date
Minimum magnitude displayed is 2.5.

Coastal Water Temperatures

Place Temperature

Nearby Weather Stations